Time;durP1;ratioP1;P1;durP2;ratioP2;P2;SDS_P1;SDS_P2;PMS_P1;PMS_P2;Temp;Humidity;BMP_temperature;BMP_pressure;BME280_temperature;BME280_humidity;BME280_pressure;Samples;Min_cycle;Max_cycle;Signal;HPM_P1;HPM_P2
2023/09/02 00:00:35;;;;;;;5.75;4.40;;;14.70;99.90;;;;;;5094395;28;20060;-72
2023/09/02 00:03:01;;;;;;;10.27;5.35;;;14.60;99.90;;;;;;5093251;28;20062;-72
2023/09/02 00:05:27;;;;;;;9.07;4.47;;;14.60;99.90;;;;;;5094265;28;20491;-72
2023/09/02 00:07:52;;;;;;;7.28;4.53;;;14.60;99.90;;;;;;5093249;28;20538;-72
2023/09/02 00:10:18;;;;;;;7.20;4.35;;;14.50;99.90;;;;;;5094194;28;20086;-72
2023/09/02 00:12:44;;;;;;;7.18;4.75;;;14.50;99.90;;;;;;5092838;28;20119;-72
2023/09/02 00:15:10;;;;;;;6.93;4.93;;;14.50;99.90;;;;;;5094217;28;20040;-71
2023/09/02 00:17:35;;;;;;;8.60;4.32;;;14.40;99.90;;;;;;5094108;28;20036;-71
2023/09/02 00:20:05;;;;;;;6.40;4.93;;;14.40;99.90;;;;;;5093876;28;20509;-71
2023/09/02 00:22:32;;;;;;;6.38;4.30;;;14.40;99.90;;;;;;5093941;28;20107;-72
2023/09/02 00:24:58;;;;;;;8.38;4.65;;;14.40;99.90;;;;;;5092899;28;20047;-71
2023/09/02 00:27:24;;;;;;;6.97;4.57;;;14.40;99.90;;;;;;5092591;28;20392;-71
2023/09/02 00:29:49;;;;;;;6.95;4.93;;;14.40;99.90;;;;;;5093845;28;20135;-72
2023/09/02 00:32:15;;;;;;;5.93;4.72;;;14.30;99.90;;;;;;5092534;28;20047;-72
2023/09/02 00:34:40;;;;;;;7.88;4.63;;;14.40;99.90;;;;;;5093610;28;20389;-71
2023/09/02 00:37:06;;;;;;;7.88;5.75;;;14.30;99.90;;;;;;5093971;28;20036;-72
2023/09/02 00:39:31;;;;;;;7.32;5.03;;;14.30;99.90;;;;;;5092409;28;20484;-73
2023/09/02 00:42:00;;;;;;;10.23;4.72;;;14.30;99.90;;;;;;5092605;28;20571;-72
2023/09/02 00:44:25;;;;;;;8.43;5.47;;;14.20;99.90;;;;;;5093732;28;20071;-71
2023/09/02 00:46:52;;;;;;;6.13;5.07;;;14.30;99.90;;;;;;5093562;28;20079;-71
2023/09/02 00:49:18;;;;;;;7.68;5.28;;;14.20;99.90;;;;;;5093271;28;20036;-72
2023/09/02 00:51:43;;;;;;;7.70;4.85;;;14.20;99.90;;;;;;5093390;28;20039;-72
2023/09/02 00:54:09;;;;;;;8.27;4.95;;;14.20;99.90;;;;;;5092019;28;20526;-71
2023/09/02 00:56:37;;;;;;;7.63;5.05;;;14.20;99.90;;;;;;5093338;28;20032;-72
2023/09/02 00:59:06;;;;;;;6.82;4.72;;;14.10;99.90;;;;;;5091844;28;20499;-72
2023/09/02 01:01:34;;;;;;;7.90;4.32;;;14.20;99.90;;;;;;5091704;28;20044;-72
2023/09/02 01:04:04;;;;;;;6.35;4.40;;;14.10;99.90;;;;;;5093433;28;20044;-72
2023/09/02 01:06:31;;;;;;;7.32;5.05;;;14.10;99.90;;;;;;5091983;28;20086;-72
2023/09/02 01:08:57;;;;;;;8.07;5.05;;;14.10;99.90;;;;;;5091243;28;20128;-71
2023/09/02 01:11:22;;;;;;;7.82;5.55;;;14.10;99.90;;;;;;5091831;28;20482;-71
2023/09/02 01:13:48;;;;;;;7.40;4.63;;;14.10;99.90;;;;;;5091933;28;20040;-71
2023/09/02 01:16:13;;;;;;;6.65;5.25;;;14.10;99.90;;;;;;5091658;28;20484;-71
2023/09/02 01:18:39;;;;;;;6.50;4.82;;;14.10;99.90;;;;;;5092909;28;20044;-71
2023/09/02 01:21:29;;;;;;;11.25;5.25;;;14.00;99.90;;;;;;5092676;28;20042;-71
2023/09/02 01:24:30;;;;;;;7.47;5.22;;;14.00;99.90;;;;;;5093087;28;20089;-71
2023/09/02 01:27:06;;;;;;;9.05;5.20;;;14.00;99.90;;;;;;5093099;28;20058;-71
2023/09/02 01:29:35;;;;;;;11.40;5.32;;;13.90;99.90;;;;;;5092740;28;20388;-71
2023/09/02 01:32:03;;;;;;;8.93;5.50;;;13.90;99.90;;;;;;5092764;28;20173;-71
2023/09/02 01:34:30;;;;;;;7.15;5.30;;;13.90;99.90;;;;;;5091387;28;20039;-72
2023/09/02 01:36:59;;;;;;;12.40;5.30;;;13.90;99.90;;;;;;5092563;28;20107;-72
2023/09/02 01:39:26;;;;;;;8.70;4.93;;;13.90;99.90;;;;;;5092214;28;20119;-72
2023/09/02 01:41:52;;;;;;;7.65;4.90;;;13.90;99.90;;;;;;5092408;28;20467;-72
2023/09/02 01:44:19;;;;;;;6.82;4.93;;;13.80;99.90;;;;;;5092488;28;20388;-72
2023/09/02 01:46:46;;;;;;;8.00;4.85;;;13.80;99.90;;;;;;5091465;28;20051;-72
2023/09/02 01:49:13;;;;;;;6.75;4.78;;;13.80;99.90;;;;;;5092271;28;20083;-72
2023/09/02 01:51:40;;;;;;;7.40;5.00;;;13.80;99.90;;;;;;5092220;28;20541;-71
2023/09/02 01:54:06;;;;;;;8.45;4.78;;;13.80;99.90;;;;;;5091150;28;20411;-72
2023/09/02 01:56:32;;;;;;;7.85;4.60;;;13.80;99.90;;;;;;5091207;28;20058;-72
2023/09/02 01:58:57;;;;;;;8.18;5.00;;;13.80;99.90;;;;;;5092148;28;20146;-71
2023/09/02 02:01:24;;;;;;;9.45;5.15;;;13.70;99.90;;;;;;5092119;28;20495;-71
2023/09/02 02:04:01;;;;;;;9.13;5.40;;;13.80;99.90;;;;;;5092257;28;20048;-71
2023/09/02 02:06:30;;;;;;;6.78;4.68;;;13.70;99.90;;;;;;5092501;28;20520;-71
2023/09/02 02:09:06;;;;;;;9.82;5.35;;;13.70;99.90;;;;;;5091778;28;20557;-71
2023/09/02 02:11:37;;;;;;;8.98;5.00;;;13.70;99.90;;;;;;5092199;28;20040;-71
2023/09/02 02:14:04;;;;;;;9.20;4.78;;;13.70;99.90;;;;;;5092040;28;20055;-71
2023/09/02 02:16:30;;;;;;;9.25;5.05;;;13.70;99.90;;;;;;5091991;28;20089;-71
2023/09/02 02:18:58;;;;;;;5.75;4.13;;;13.60;99.90;;;;;;5090682;28;20196;-71
2023/09/02 02:21:24;;;;;;;6.93;4.68;;;13.70;99.90;;;;;;5091334;28;20042;-71
2023/09/02 02:23:49;;;;;;;5.82;4.28;;;13.60;99.90;;;;;;5092005;28;20426;-71
2023/09/02 02:26:16;;;;;;;5.72;4.57;;;13.70;99.90;;;;;;5090549;28;20093;-72
2023/09/02 02:28:42;;;;;;;8.15;6.15;;;13.60;99.90;;;;;;5090391;28;20384;-72
2023/09/02 02:31:09;;;;;;;8.18;5.78;;;13.60;99.90;;;;;;5090491;28;20051;-72
2023/09/02 02:33:36;;;;;;;8.98;5.40;;;13.60;99.90;;;;;;5073665;28;20040;-72
2023/09/02 02:36:02;;;;;;;7.43;4.97;;;13.60;99.90;;;;;;5073946;28;20040;-72
2023/09/02 02:38:28;;;;;;;9.15;5.30;;;13.60;99.90;;;;;;5091605;28;20062;-72
2023/09/02 02:40:53;;;;;;;8.77;5.57;;;13.60;99.90;;;;;;5091726;28;20484;-71
2023/09/02 02:43:25;;;;;;;6.97;4.68;;;13.50;99.90;;;;;;5090647;28;20044;-71
2023/09/02 02:45:51;;;;;;;7.38;4.82;;;13.50;99.90;;;;;;5091625;28;20479;-71
2023/09/02 02:48:17;;;;;;;13.10;5.50;;;13.50;99.90;;;;;;5091746;28;20096;-71
2023/09/02 02:50:42;;;;;;;9.77;5.47;;;13.50;99.90;;;;;;5090125;28;20040;-71
2023/09/02 02:53:08;;;;;;;9.07;4.88;;;13.50;99.90;;;;;;5090337;28;20177;-71
2023/09/02 02:55:34;;;;;;;7.55;5.00;;;13.50;99.90;;;;;;5091595;28;20036;-72
2023/09/02 02:57:59;;;;;;;8.95;5.72;;;13.40;99.90;;;;;;5090148;28;20126;-72
2023/09/02 03:00:25;;;;;;;9.30;6.43;;;13.40;99.90;;;;;;5091317;28;20036;-72
2023/09/02 03:02:52;;;;;;;7.70;5.15;;;13.40;99.90;;;;;;5091373;28;20038;-71
2023/09/02 03:05:19;;;;;;;9.63;6.43;;;13.40;99.90;;;;;;5091911;28;20082;-71
2023/09/02 03:07:45;;;;;;;10.68;5.97;;;13.40;99.90;;;;;;5090350;28;20495;-71
2023/09/02 03:10:11;;;;;;;14.30;6.03;;;13.40;99.90;;;;;;5089949;28;20048;-71
2023/09/02 03:12:36;;;;;;;7.85;5.20;;;13.30;99.90;;;;;;5091350;28;20119;-72
2023/09/02 03:15:03;;;;;;;7.15;5.43;;;13.40;99.90;;;;;;5091298;28;20045;-71
2023/09/02 03:17:28;;;;;;;8.55;5.78;;;13.40;99.90;;;;;;5090356;28;20082;-71
2023/09/02 03:19:54;;;;;;;9.57;5.63;;;13.40;99.90;;;;;;5091368;28;20068;-71
2023/09/02 03:22:19;;;;;;;6.72;4.85;;;13.30;99.90;;;;;;5090177;28;20098;-71
2023/09/02 03:24:45;;;;;;;9.20;6.18;;;13.30;99.90;;;;;;5091360;28;20081;-71
2023/09/02 03:27:10;;;;;;;7.07;4.80;;;13.30;99.90;;;;;;5091193;28;20412;-71
2023/09/02 03:29:36;;;;;;;7.78;5.50;;;13.30;99.90;;;;;;5091026;28;20047;-71
2023/09/02 03:32:02;;;;;;;11.27;6.82;;;13.30;99.90;;;;;;5091235;28;20040;-71
2023/09/02 03:34:27;;;;;;;10.40;7.57;;;13.30;99.90;;;;;;5095107;28;20036;-71
2023/09/02 03:36:53;;;;;;;9.23;6.53;;;13.30;99.90;;;;;;5094861;28;20076;-71
2023/09/02 03:39:19;;;;;;;13.48;7.50;;;13.30;99.90;;;;;;5094757;28;20036;-71
2023/09/02 03:41:45;;;;;;;8.27;6.28;;;13.40;99.90;;;;;;5093572;28;20119;-71
2023/09/02 03:44:10;;;;;;;9.15;6.93;;;13.40;99.90;;;;;;5094785;28;20124;-71
2023/09/02 03:46:36;;;;;;;12.35;7.25;;;13.40;99.90;;;;;;5095003;28;20075;-72
2023/09/02 03:49:02;;;;;;;11.10;7.93;;;13.40;99.90;;;;;;5094704;28;20115;-71
2023/09/02 03:51:28;;;;;;;10.57;7.28;;;13.40;99.90;;;;;;5093530;28;20043;-71
2023/09/02 03:53:54;;;;;;;12.70;7.40;;;13.40;99.90;;;;;;5094684;28;20040;-71
2023/09/02 03:56:19;;;;;;;11.57;7.05;;;13.50;99.90;;;;;;5094598;28;20043;-72
2023/09/02 03:58:45;;;;;;;15.00;7.43;;;13.50;99.90;;;;;;5094165;28;20067;-71
2023/09/02 04:01:12;;;;;;;10.45;7.65;;;13.50;99.90;;;;;;5093104;28;20548;-71
2023/09/02 04:03:37;;;;;;;14.25;8.88;;;13.50;99.90;;;;;;5094688;28;20040;-72
2023/09/02 04:06:04;;;;;;;11.15;8.20;;;13.50;99.90;;;;;;5094448;28;20038;-72
2023/09/02 04:08:34;;;;;;;17.35;8.88;;;13.50;99.90;;;;;;5092821;28;20507;-72
2023/09/02 04:11:01;;;;;;;14.18;8.43;;;13.50;99.90;;;;;;5094210;28;20048;-72
2023/09/02 04:13:30;;;;;;;11.70;8.60;;;13.60;99.90;;;;;;5092829;28;20143;-72
2023/09/02 04:15:57;;;;;;;13.27;8.32;;;13.60;99.90;;;;;;5094246;28;20036;-72
2023/09/02 04:18:26;;;;;;;13.98;8.80;;;13.60;99.90;;;;;;5094235;28;20040;-72
2023/09/02 04:20:53;;;;;;;12.70;8.98;;;13.60;99.90;;;;;;5092934;28;20529;-72
2023/09/02 04:23:21;;;;;;;15.32;9.95;;;13.60;99.90;;;;;;5094231;28;20036;-72
2023/09/02 04:25:51;;;;;;;14.02;9.48;;;13.60;99.90;;;;;;5093925;28;20051;-72
2023/09/02 04:28:18;;;;;;;14.52;9.00;;;13.60;99.90;;;;;;5094149;28;20047;-71
2023/09/02 04:30:44;;;;;;;11.77;8.73;;;13.60;99.90;;;;;;5093880;28;20050;-72
2023/09/02 04:33:10;;;;;;;13.40;8.45;;;13.60;99.90;;;;;;5093909;28;20541;-71
2023/09/02 04:35:41;;;;;;;12.93;8.88;;;13.60;99.90;;;;;;5093776;28;20040;-71
2023/09/02 04:38:07;;;;;;;15.23;10.23;;;13.60;99.90;;;;;;5093716;28;20051;-71
2023/09/02 04:40:40;;;;;;;13.98;9.05;;;13.60;99.90;;;;;;5093335;28;20511;-71
2023/09/02 04:43:07;;;;;;;14.20;9.55;;;13.60;99.90;;;;;;5093691;28;20161;-72
2023/09/02 04:45:37;;;;;;;14.50;9.32;;;13.60;99.90;;;;;;5093113;28;20044;-72
2023/09/02 04:48:04;;;;;;;14.43;10.23;;;13.60;99.90;;;;;;5093496;28;20071;-71
2023/09/02 04:50:30;;;;;;;15.98;9.68;;;13.60;99.90;;;;;;5093334;28;20048;-72
2023/09/02 04:52:57;;;;;;;16.60;10.15;;;13.70;99.90;;;;;;5093385;28;20122;-73
2023/09/02 04:55:24;;;;;;;13.63;10.27;;;13.70;99.90;;;;;;5093404;28;20044;-72
2023/09/02 04:57:55;;;;;;;14.90;10.68;;;13.80;99.90;;;;;;5093356;28;20528;-72
2023/09/02 05:00:24;;;;;;;16.02;10.73;;;13.80;99.90;;;;;;5092110;28;20102;-72
2023/09/02 05:02:49;;;;;;;20.33;10.93;;;13.80;99.90;;;;;;5100411;22;20048;-69
2023/09/02 05:05:17;;;;;;;15.82;10.20;;;13.80;99.90;;;;;;5072945;28;20499;-69
2023/09/02 05:07:43;;;;;;;15.10;9.38;;;13.80;99.90;;;;;;5072887;28;20493;-69
2023/09/02 05:10:09;;;;;;;15.80;10.73;;;13.80;99.90;;;;;;5072755;28;20055;-69
2023/09/02 05:12:34;;;;;;;13.48;8.90;;;13.80;99.90;;;;;;5072709;28;20098;-69
2023/09/02 05:15:00;;;;;;;18.80;10.52;;;13.80;99.90;;;;;;5072820;28;20044;-69
2023/09/02 05:17:26;;;;;;;16.00;11.15;;;13.80;99.90;;;;;;5072719;28;20032;-69
2023/09/02 05:19:52;;;;;;;17.70;11.32;;;13.80;99.90;;;;;;5072508;28;20068;-69
2023/09/02 05:22:18;;;;;;;18.25;11.30;;;13.80;99.90;;;;;;5072824;28;20118;-69
2023/09/02 05:24:43;;;;;;;21.80;11.32;;;13.80;99.90;;;;;;5072861;28;20044;-69
2023/09/02 05:27:09;;;;;;;18.10;11.00;;;13.90;99.90;;;;;;5072442;28;20044;-69
2023/09/02 05:29:34;;;;;;;15.32;10.60;;;13.90;99.90;;;;;;5072471;28;20052;-69
2023/09/02 05:32:00;;;;;;;17.55;11.25;;;13.80;99.90;;;;;;5072443;28;20071;-69
2023/09/02 05:34:25;;;;;;;24.15;14.32;;;13.80;99.90;;;;;;5072311;28;20047;-69
2023/09/02 05:36:51;;;;;;;21.70;12.73;;;13.90;99.90;;;;;;5071364;28;20040;-69
2023/09/02 05:39:16;;;;;;;21.42;13.27;;;13.80;99.90;;;;;;5070179;28;20039;-69
2023/09/02 05:41:45;;;;;;;22.77;14.27;;;13.80;99.90;;;;;;5068697;28;20032;-69
2023/09/02 05:44:11;;;;;;;22.48;14.48;;;13.90;99.90;;;;;;5067932;28;20539;-69
2023/09/02 05:46:37;;;;;;;23.38;14.82;;;13.90;99.90;;;;;;5072268;28;20087;-69
2023/09/02 05:49:03;;;;;;;20.30;13.68;;;13.90;99.90;;;;;;5071812;28;20064;-69
2023/09/02 05:51:29;;;;;;;22.63;14.50;;;14.00;99.90;;;;;;5072286;28;20041;-69
2023/09/02 05:53:55;;;;;;;24.70;14.48;;;14.10;99.90;;;;;;5071991;28;20568;-69
2023/09/02 05:56:21;;;;;;;19.65;13.75;;;14.20;99.90;;;;;;5070083;28;20124;-69
2023/09/02 05:58:46;;;;;;;21.77;12.43;;;14.40;99.90;;;;;;5071867;28;20040;-69
2023/09/02 06:01:12;;;;;;;19.92;13.98;;;14.60;99.90;;;;;;5070486;28;20033;-69
2023/09/02 06:03:37;;;;;;;20.88;13.70;;;14.60;99.90;;;;;;5063395;28;20036;-69
2023/09/02 06:06:10;;;;;;;21.25;14.02;;;14.80;99.90;;;;;;5072139;28;20040;-69
2023/09/02 06:08:36;;;;;;;21.20;14.23;;;14.90;99.90;;;;;;5070386;28;20044;-69
2023/09/02 06:11:01;;;;;;;21.77;13.25;;;15.00;99.90;;;;;;5071731;28;20040;-66
2023/09/02 06:13:27;;;;;;;19.58;13.02;;;15.10;99.90;;;;;;5071841;28;20072;-69
2023/09/02 06:16:00;;;;;;;23.83;14.77;;;15.10;99.90;;;;;;5071812;28;20036;-69
2023/09/02 06:18:26;;;;;;;19.40;13.88;;;15.30;99.90;;;;;;5070536;28;20682;-69
2023/09/02 06:20:51;;;;;;;21.42;14.63;;;15.40;99.90;;;;;;5072005;28;20162;-69
2023/09/02 06:23:17;;;;;;;20.75;14.35;;;15.60;99.90;;;;;;5070475;28;20102;-69
2023/09/02 06:25:43;;;;;;;23.30;13.20;;;15.80;99.90;;;;;;5071687;28;20082;-69
2023/09/02 06:28:08;;;;;;;26.67;15.35;;;16.00;99.90;;;;;;5071702;28;20124;-69
2023/09/02 06:30:37;;;;;;;24.75;15.35;;;16.20;99.90;;;;;;5071563;28;20403;-69
2023/09/02 06:33:03;;;;;;;18.45;13.70;;;16.40;99.90;;;;;;5071786;28;20036;-69
2023/09/02 06:35:31;;;;;;;20.70;13.48;;;16.60;99.90;;;;;;5071749;28;20385;-69
2023/09/02 06:37:57;;;;;;;22.08;14.82;;;16.70;99.90;;;;;;5071697;28;20032;-69
2023/09/02 06:40:23;;;;;;;22.85;14.10;;;17.00;99.90;;;;;;5071455;28;20519;-69
2023/09/02 06:42:48;;;;;;;18.75;13.98;;;17.20;99.90;;;;;;5071497;28;20115;-69
2023/09/02 06:45:14;;;;;;;17.52;12.77;;;17.40;99.90;;;;;;5071523;28;20036;-69
2023/09/02 06:47:39;;;;;;;19.30;13.13;;;17.60;99.90;;;;;;5071531;28;20041;-69
2023/09/02 06:50:05;;;;;;;19.95;13.88;;;17.80;99.90;;;;;;5071276;28;20043;-69
2023/09/02 06:52:31;;;;;;;24.33;14.18;;;17.90;99.90;;;;;;5071476;28;20041;-66
2023/09/02 06:54:56;;;;;;;21.33;13.75;;;18.00;99.90;;;;;;5071469;28;20079;-66
2023/09/02 06:57:22;;;;;;;18.95;12.27;;;18.20;99.90;;;;;;5071326;28;20039;-66
2023/09/02 06:59:47;;;;;;;21.58;13.50;;;18.40;99.90;;;;;;5071249;28;20457;-66
2023/09/02 07:02:13;;;;;;;18.20;12.90;;;18.50;99.90;;;;;;5071147;28;20071;-66
2023/09/02 07:04:39;;;;;;;20.05;14.43;;;18.60;99.90;;;;;;5063107;28;20037;-67
2023/09/02 07:07:04;;;;;;;17.08;12.25;;;18.80;99.90;;;;;;5071627;28;20408;-67
2023/09/02 07:09:30;;;;;;;20.40;13.82;;;19.00;99.90;;;;;;5075054;28;20603;-67
2023/09/02 07:11:55;;;;;;;24.08;13.82;;;19.00;99.90;;;;;;5075244;28;20029;-68
2023/09/02 07:14:21;;;;;;;25.15;13.57;;;19.10;99.90;;;;;;5074953;28;20522;-67
2023/09/02 07:16:49;;;;;;;17.45;13.57;;;19.30;99.90;;;;;;5075309;28;20119;-67
2023/09/02 07:19:14;;;;;;;17.65;13.05;;;19.40;99.90;;;;;;5074832;28;20036;-67
2023/09/02 07:21:40;;;;;;;19.85;11.77;;;19.60;99.90;;;;;;5075221;28;20036;-67
2023/09/02 07:24:05;;;;;;;18.17;13.10;;;19.70;99.90;;;;;;5075107;28;20036;-66
2023/09/02 07:26:32;;;;;;;19.42;12.30;;;19.90;99.90;;;;;;5074954;28;20044;-67
2023/09/02 07:28:58;;;;;;;19.05;11.88;;;20.00;99.90;;;;;;5074520;28;20049;-67
2023/09/02 07:31:24;;;;;;;20.08;12.90;;;20.00;99.90;;;;;;5074959;28;20036;-67
2023/09/02 07:33:50;;;;;;;22.48;13.63;;;20.00;99.90;;;;;;5074909;28;20121;-67
2023/09/02 07:36:16;;;;;;;16.88;12.98;;;20.20;99.90;;;;;;5074874;28;20060;-67
2023/09/02 07:38:44;;;;;;;18.50;13.38;;;20.30;99.90;;;;;;5074597;28;20033;-67
2023/09/02 07:41:09;;;;;;;18.48;12.90;;;20.50;99.90;;;;;;5074639;28;20056;-67
2023/09/02 07:43:36;;;;;;;19.98;13.13;;;20.70;99.90;;;;;;5074553;28;20063;-67
2023/09/02 07:46:01;;;;;;;21.40;13.13;;;21.00;99.90;;;;;;5074701;28;20041;-67
2023/09/02 07:48:27;;;;;;;22.92;12.90;;;20.90;99.90;;;;;;5074481;28;20043;-67
2023/09/02 07:50:52;;;;;;;17.08;12.45;;;21.00;99.90;;;;;;5073216;28;20079;-67
2023/09/02 07:53:18;;;;;;;22.60;14.45;;;21.20;99.90;;;;;;5074451;28;20204;-67
2023/09/02 07:55:43;;;;;;;20.75;13.30;;;21.20;99.90;;;;;;5074317;28;20068;-67
2023/09/02 07:58:09;;;;;;;18.38;12.95;;;21.30;99.90;;;;;;5074219;28;20111;-67
2023/09/02 08:00:36;;;;;;;16.80;12.85;;;21.20;99.90;;;;;;5074375;28;20044;-67
2023/09/02 08:03:02;;;;;;;16.70;13.13;;;21.30;99.90;;;;;;5074224;28;20072;-67
2023/09/02 08:05:28;;;;;;;20.40;12.65;;;21.30;99.90;;;;;;5072975;28;20044;-67
2023/09/02 08:07:54;;;;;;;21.50;11.90;;;21.40;99.90;;;;;;5074136;28;20039;-67
2023/09/02 08:10:20;;;;;;;17.30;12.45;;;21.50;99.90;;;;;;5074215;28;20086;-67
2023/09/02 08:12:48;;;;;;;17.98;12.60;;;21.60;99.90;;;;;;5074144;28;20492;-67
2023/09/02 08:15:14;;;;;;;17.40;12.23;;;21.50;99.90;;;;;;5072808;28;20492;-67
2023/09/02 08:17:41;;;;;;;17.35;12.30;;;21.60;99.90;;;;;;5074259;28;20044;-67
2023/09/02 08:20:11;;;;;;;15.38;11.63;;;21.80;99.90;;;;;;5072933;28;20047;-67
2023/09/02 08:22:39;;;;;;;19.05;11.40;;;21.90;99.90;;;;;;5074132;28;20044;-68
2023/09/02 08:25:05;;;;;;;13.93;9.98;;;21.90;99.90;;;;;;5073955;28;20048;-67
2023/09/02 08:27:31;;;;;;;17.55;10.63;;;21.60;99.90;;;;;;5073864;28;20047;-67
2023/09/02 08:29:56;;;;;;;14.45;9.98;;;21.90;99.90;;;;;;5073796;28;20041;-67
2023/09/02 08:32:22;;;;;;;14.75;9.63;;;22.00;99.90;;;;;;5072683;28;20488;-68
2023/09/02 08:34:47;;;;;;;13.45;10.25;;;21.90;99.90;;;;;;5073635;28;20090;-67
2023/09/02 08:37:13;;;;;;;13.00;9.05;;;21.90;99.90;;;;;;5073644;28;20042;-68
2023/09/02 08:39:38;;;;;;;16.40;10.80;;;22.00;99.90;;;;;;5073340;28;20044;-67
2023/09/02 08:42:05;;;;;;;14.85;10.88;;;22.00;99.90;;;;;;5072235;28;20037;-67
2023/09/02 08:44:35;;;;;;;17.10;10.68;;;22.00;99.90;;;;;;5073649;28;20072;-67
2023/09/02 08:47:05;;;;;;;13.25;9.75;;;22.00;99.90;;;;;;5073373;28;20507;-68
2023/09/02 08:49:33;;;;;;;14.73;11.00;;;22.00;99.90;;;;;;5073228;28;20036;-68
2023/09/02 08:51:59;;;;;;;15.05;10.52;;;21.90;99.90;;;;;;5072221;28;20056;-67
2023/09/02 08:54:27;;;;;;;14.20;10.50;;;22.10;99.90;;;;;;5073055;28;20041;-67
2023/09/02 08:56:56;;;;;;;16.80;10.82;;;22.30;99.90;;;;;;5073426;28;20032;-67
2023/09/02 08:59:23;;;;;;;14.18;10.75;;;22.20;99.90;;;;;;5072725;28;20504;-67
2023/09/02 09:01:50;;;;;;;16.25;11.07;;;22.10;99.90;;;;;;5072972;28;20032;-67
2023/09/02 09:04:17;;;;;;;13.00;10.15;;;22.00;99.90;;;;;;5073103;28;20055;-67
2023/09/02 09:06:43;;;;;;;16.48;11.25;;;22.20;99.90;;;;;;5072991;28;20408;-67
2023/09/02 09:09:10;;;;;;;16.20;11.80;;;22.10;99.90;;;;;;5072452;28;20045;-68
2023/09/02 09:11:43;;;;;;;17.98;11.48;;;21.90;99.90;;;;;;5072768;28;20040;-67
2023/09/02 09:14:16;;;;;;;14.77;11.75;;;21.90;99.90;;;;;;5072750;28;20051;-67
2023/09/02 09:16:42;;;;;;;;;;;21.90;99.90;;;;;;5072060;28;20048;-67
2023/09/02 09:19:07;;;;;;;15.02;10.15;;;21.90;99.90;;;;;;5072601;28;19927;-68
2023/09/02 09:21:33;;;;;;;19.90;11.30;;;21.90;99.90;;;;;;5063661;28;20139;-68
2023/09/02 09:23:59;;;;;;;14.20;10.35;;;22.00;99.90;;;;;;5052974;28;20051;-68
2023/09/02 09:26:25;;;;;;;15.98;10.70;;;22.00;99.90;;;;;;5051462;28;20412;-67
2023/09/02 09:28:56;;;;;;;18.98;11.52;;;21.80;99.90;;;;;;5052508;28;20033;-67
2023/09/02 09:31:23;;;;;;;14.57;11.15;;;21.50;99.90;;;;;;5052469;28;20056;-67
2023/09/02 09:33:53;;;;;;;14.80;9.82;;;21.40;99.90;;;;;;5052535;28;20049;-67
2023/09/02 09:36:21;;;;;;;16.90;11.25;;;21.10;99.90;;;;;;5051451;28;20049;-68
2023/09/02 09:38:48;;;;;;;16.70;10.82;;;21.20;99.90;;;;;;5052300;28;20119;-67
2023/09/02 09:41:13;;;;;;;14.63;10.40;;;21.10;99.90;;;;;;5052394;28;20079;-68
2023/09/02 09:43:39;;;;;;;15.93;9.82;;;20.90;99.90;;;;;;5052593;28;20488;-68
2023/09/02 09:46:05;;;;;;;16.98;10.48;;;20.80;99.90;;;;;;5052469;28;20063;-67
2023/09/02 09:48:30;;;;;;;15.40;10.68;;;20.80;99.90;;;;;;5052055;28;20085;-67
2023/09/02 09:50:56;;;;;;;16.48;10.02;;;20.80;99.90;;;;;;5052388;28;20037;-67
2023/09/02 09:53:23;;;;;;;17.48;10.13;;;21.20;99.90;;;;;;5050914;28;20033;-68
2023/09/02 09:55:49;;;;;;;11.80;10.07;;;21.30;99.90;;;;;;5052175;28;20055;-67
2023/09/02 09:58:22;;;;;;;13.85;9.70;;;21.50;99.90;;;;;;5051934;28;20037;-68
2023/09/02 10:00:52;;;;;;;15.52;10.40;;;21.80;99.90;;;;;;5052037;28;20037;-69
2023/09/02 10:03:28;;;;;;;16.65;10.20;;;21.80;99.90;;;;;;5050612;28;20071;-69
2023/09/02 10:05:59;;;;;;;12.43;9.13;;;21.70;99.90;;;;;;5051013;28;20060;-69
2023/09/02 10:08:24;;;;;;;11.57;8.43;;;21.90;99.90;;;;;;5051955;28;20045;-69
2023/09/02 10:10:50;;;;;;;15.57;9.10;;;21.80;99.90;;;;;;5050443;28;20043;-70
2023/09/02 10:13:16;;;;;;;16.65;8.60;;;21.80;99.90;;;;;;5051699;28;20045;-70
2023/09/02 10:15:42;;;;;;;14.05;9.10;;;21.50;99.90;;;;;;5051618;28;20045;-70
2023/09/02 10:18:07;;;;;;;15.25;8.68;;;21.30;99.90;;;;;;5051902;28;20047;-70
2023/09/02 10:20:35;;;;;;;13.02;7.80;;;21.20;99.90;;;;;;5051761;28;20037;-70
2023/09/02 10:23:06;;;;;;;12.18;6.75;;;21.20;99.90;;;;;;5051827;28;20397;-72
2023/09/02 10:25:48;;;;;;;9.98;6.70;;;21.20;99.90;;;;;;5051815;28;20045;-70
2023/09/02 10:28:23;;;;;;;16.40;9.43;;;21.10;99.90;;;;;;5051586;28;20072;-69
2023/09/02 10:30:51;;;;;;;11.27;7.63;;;21.10;99.90;;;;;;5050263;28;20045;-68
2023/09/02 10:33:23;;;;;;;10.75;7.75;;;21.10;99.90;;;;;;5051734;28;20174;-69
2023/09/02 10:36:00;;;;;;;10.67;7.37;;;21.20;99.90;;;;;;5050434;28;20552;-68
2023/09/02 10:38:28;;;;;;;12.00;8.43;;;21.30;99.90;;;;;;5051523;28;20060;-68
2023/09/02 10:41:10;;;;;;;13.77;7.13;;;21.30;99.90;;;;;;5051437;28;20037;-68
2023/09/02 10:43:37;;;;;;;10.35;7.95;;;21.40;98.80;;;;;;5057301;28;20040;-68
2023/09/02 10:46:04;;;;;;;13.23;8.88;;;21.40;99.90;;;;;;5058103;28;20039;-68
2023/09/02 10:48:29;;;;;;;9.35;7.20;;;21.50;99.90;;;;;;5057971;28;20099;-68
2023/09/02 10:50:56;;;;;;;11.82;7.60;;;21.50;99.90;;;;;;5056827;28;20460;-67
2023/09/02 10:53:48;;;;;;;10.90;6.70;;;21.50;99.90;;;;;;5057875;28;20163;-68
2023/09/02 10:56:28;;;;;;;10.88;8.05;;;21.50;99.40;;;;;;5047365;28;20064;-68
2023/09/02 10:58:54;;;;;;;18.10;9.52;;;21.50;99.90;;;;;;5057936;28;20032;-68
2023/09/02 11:01:21;;;;;;;17.15;9.52;;;21.60;99.90;;;;;;5083639;22;20381;-69
2023/09/02 11:03:48;;;;;;;13.57;8.38;;;21.70;99.90;;;;;;5074590;28;20067;-70
2023/09/02 11:06:17;;;;;;;11.80;7.65;;;21.90;99.90;;;;;;5076717;28;20047;-69
2023/09/02 11:08:48;;;;;;;8.63;6.43;;;22.00;99.90;;;;;;5077827;28;20037;-70
2023/09/02 11:11:14;;;;;;;8.95;7.00;;;21.90;99.90;;;;;;5076275;28;20037;-70
2023/09/02 11:14:07;;;;;;;10.02;7.00;;;21.70;99.90;;;;;;5072381;28;20048;-70
2023/09/02 11:16:34;;;;;;;9.93;6.43;;;21.30;99.90;;;;;;5064312;28;20043;-70
2023/09/02 11:19:00;;;;;;;10.40;6.68;;;21.10;99.90;;;;;;5077720;28;20056;-70
2023/09/02 11:21:40;;;;;;;10.00;5.97;;;21.00;99.90;;;;;;5077903;28;20037;-70
2023/09/02 11:24:20;;;;;;;10.10;6.30;;;20.90;99.90;;;;;;5077835;28;20123;-70
2023/09/02 11:26:54;;;;;;;10.63;5.70;;;20.80;99.90;;;;;;5076745;28;20041;-70
2023/09/02 11:29:27;;;;;;;11.70;6.07;;;20.80;99.90;;;;;;5077564;28;20559;-72
2023/09/02 11:32:03;;;;;;;7.38;5.97;;;20.90;99.90;;;;;;5077715;28;20080;-70
2023/09/02 11:34:30;;;;;;;13.13;6.05;;;21.10;99.90;;;;;;5077303;28;20507;-70
2023/09/02 11:36:57;;;;;;;8.02;5.57;;;21.20;99.90;;;;;;5077493;28;20048;-70
2023/09/02 11:39:31;;;;;;;10.40;6.80;;;21.20;99.90;;;;;;5076326;28;20051;-69
2023/09/02 11:42:11;;;;;;;10.27;6.00;;;21.30;99.90;;;;;;5076503;28;20036;-70
2023/09/02 11:44:37;;;;;;;8.52;6.03;;;21.40;99.90;;;;;;5076334;28;20036;-70
2023/09/02 11:47:04;;;;;;;6.55;5.03;;;21.50;99.90;;;;;;5076307;28;20040;-69
2023/09/02 11:49:29;;;;;;;9.43;5.20;;;21.60;99.90;;;;;;5077261;28;20040;-69
2023/09/02 11:51:56;;;;;;;9.73;5.00;;;21.50;99.90;;;;;;5076505;28;20556;-69
2023/09/02 11:54:22;;;;;;;10.52;5.07;;;21.40;99.90;;;;;;5074165;28;20427;-71
2023/09/02 11:56:58;;;;;;;7.22;4.70;;;21.20;99.90;;;;;;5074382;28;20041;-69
2023/09/02 11:59:24;;;;;;;6.78;4.60;;;21.00;99.90;;;;;;5074157;28;20043;-70
2023/09/02 12:02:14;;;;;;;9.57;5.15;;;20.90;99.90;;;;;;5072543;28;20028;-69
2023/09/02 12:04:41;;;;;;;6.38;4.53;;;21.00;99.90;;;;;;5074621;28;20094;-69
2023/09/02 12:07:08;;;;;;;7.40;4.78;;;21.10;99.90;;;;;;5074421;28;20040;-70
2023/09/02 12:09:40;;;;;;;8.68;5.05;;;21.20;99.90;;;;;;5074086;28;20081;-70
2023/09/02 12:12:06;;;;;;;6.80;4.20;;;21.30;99.90;;;;;;5072816;28;20044;-70
2023/09/02 12:14:32;;;;;;;5.70;4.15;;;21.30;99.90;;;;;;5072807;28;20249;-70
2023/09/02 12:16:59;;;;;;;9.23;4.78;;;21.40;99.90;;;;;;5074211;28;20111;-69
2023/09/02 12:19:28;;;;;;;6.95;4.03;;;21.30;99.90;;;;;;5073944;28;20037;-70
2023/09/02 12:21:54;;;;;;;16.13;6.35;;;21.40;99.90;;;;;;5074019;28;20036;-69
2023/09/02 12:24:20;;;;;;;6.47;4.28;;;21.40;99.90;;;;;;5073870;28;20044;-71
2023/09/02 12:26:50;;;;;;;9.48;4.90;;;21.50;99.90;;;;;;5073230;28;20044;-72
2023/09/02 12:29:20;;;;;;;5.70;4.28;;;21.50;99.90;;;;;;5071906;28;20060;-73
2023/09/02 12:31:56;;;;;;;7.28;4.68;;;21.40;99.90;;;;;;5072044;28;20523;-73
2023/09/02 12:34:23;;;;;;;7.15;4.85;;;21.40;99.90;;;;;;5072764;28;20055;-72
2023/09/02 12:36:49;;;;;;;6.63;4.60;;;21.40;99.90;;;;;;5055736;28;20048;-73